DIAP

Port Bouet Airport

Abidjan, Côte D’Ivoire
METAR DIAP 152030Z 24005KT 9999 SCT012 25/23 Q1014 NOSIG
Observed Flight Rules
Jul-15 @ 20:30 UTC (27 minutes ago) Visual Flight Rules
Wind Visibility Clouds
240° at 5 knots 10,000+ meters
  • Scattered at 1,200' AGL
Temperatures Readings
Current 25°C / 77°F
Dewpoint 23°C / 73°F
Humidity 89%
Altimeter 29.94" Hg
Pressure 1014 hPa
Elevation 8
METAR DIAP 152030Z 24005KT 9999 SCT012 25/23 Q1014 NOSIG
Observed Flight Rules
Jul-15 @ 20:30 UTC
(27 minutes ago)
VFR
Wind Visibility
240° at 5 knots 10,000+ meters
Clouds
  • Scattered at 1,200' AGL
Temperature Dewpoint
25°C / 77°F 23°C / 73°F
Humidity Altimeter Pressure
89% 29.94" Hg 1014 hPa